sensor_id;sensor_type;location;lat;lon;timestamp;P1;durP1;ratioP1;P2;durP2;ratioP2
28304;SDS011;15569;42.652;23.040;2023-04-24T00:00:32;10.75;;;6.15;;
28304;SDS011;15569;42.652;23.040;2023-04-24T00:02:57;9.27;;;5.88;;
28304;SDS011;15569;42.652;23.040;2023-04-24T00:05:23;9.38;;;6.68;;
28304;SDS011;15569;42.652;23.040;2023-04-24T00:07:49;8.23;;;5.80;;
28304;SDS011;15569;42.652;23.040;2023-04-24T00:10:17;10.15;;;6.55;;
28304;SDS011;15569;42.652;23.040;2023-04-24T00:12:43;11.75;;;6.35;;
28304;SDS011;15569;42.652;23.040;2023-04-24T00:15:09;12.10;;;6.57;;
28304;SDS011;15569;42.652;23.040;2023-04-24T00:17:34;9.02;;;5.90;;
28304;SDS011;15569;42.652;23.040;2023-04-24T00:20:00;9.68;;;6.05;;
28304;SDS011;15569;42.652;23.040;2023-04-24T00:22:27;10.15;;;6.60;;
28304;SDS011;15569;42.652;23.040;2023-04-24T00:24:53;14.70;;;5.93;;
28304;SDS011;15569;42.652;23.040;2023-04-24T00:27:19;14.15;;;7.28;;
28304;SDS011;15569;42.652;23.040;2023-04-24T00:29:44;12.45;;;6.50;;
28304;SDS011;15569;42.652;23.040;2023-04-24T00:32:10;12.57;;;7.25;;
28304;SDS011;15569;42.652;23.040;2023-04-24T00:34:36;9.02;;;6.35;;
28304;SDS011;15569;42.652;23.040;2023-04-24T00:37:01;14.77;;;6.63;;
28304;SDS011;15569;42.652;23.040;2023-04-24T00:39:27;13.52;;;6.15;;
28304;SDS011;15569;42.652;23.040;2023-04-24T00:41:52;19.67;;;6.97;;
28304;SDS011;15569;42.652;23.040;2023-04-24T00:44:18;9.77;;;5.65;;
28304;SDS011;15569;42.652;23.040;2023-04-24T00:46:44;18.55;;;6.15;;
28304;SDS011;15569;42.652;23.040;2023-04-24T00:49:09;17.00;;;7.10;;
28304;SDS011;15569;42.652;23.040;2023-04-24T00:51:35;14.30;;;6.65;;
28304;SDS011;15569;42.652;23.040;2023-04-24T00:54:01;14.50;;;6.18;;
28304;SDS011;15569;42.652;23.040;2023-04-24T00:56:27;12.18;;;6.97;;
28304;SDS011;15569;42.652;23.040;2023-04-24T00:58:53;10.85;;;6.78;;
28304;SDS011;15569;42.652;23.040;2023-04-24T01:01:19;10.90;;;6.53;;
28304;SDS011;15569;42.652;23.040;2023-04-24T01:03:46;12.05;;;7.07;;
28304;SDS011;15569;42.652;23.040;2023-04-24T01:06:11;10.88;;;6.78;;
28304;SDS011;15569;42.652;23.040;2023-04-24T01:08:37;9.70;;;6.55;;
28304;SDS011;15569;42.652;23.040;2023-04-24T01:11:04;11.93;;;6.63;;
28304;SDS011;15569;42.652;23.040;2023-04-24T01:13:31;11.70;;;5.97;;
28304;SDS011;15569;42.652;23.040;2023-04-24T01:15:57;14.10;;;6.45;;
28304;SDS011;15569;42.652;23.040;2023-04-24T01:18:23;9.60;;;5.72;;
28304;SDS011;15569;42.652;23.040;2023-04-24T01:20:48;18.05;;;6.30;;
28304;SDS011;15569;42.652;23.040;2023-04-24T01:23:18;11.77;;;6.65;;
28304;SDS011;15569;42.652;23.040;2023-04-24T01:25:43;14.70;;;6.05;;
28304;SDS011;15569;42.652;23.040;2023-04-24T01:28:09;13.52;;;6.70;;
28304;SDS011;15569;42.652;23.040;2023-04-24T01:30:35;9.25;;;6.63;;
28304;SDS011;15569;42.652;23.040;2023-04-24T01:33:01;9.70;;;6.85;;
28304;SDS011;15569;42.652;23.040;2023-04-24T01:35:26;11.80;;;6.60;;
28304;SDS011;15569;42.652;23.040;2023-04-24T01:37:52;8.68;;;6.25;;
28304;SDS011;15569;42.652;23.040;2023-04-24T01:40:17;10.20;;;5.93;;
28304;SDS011;15569;42.652;23.040;2023-04-24T01:42:44;10.43;;;6.40;;
28304;SDS011;15569;42.652;23.040;2023-04-24T01:45:11;9.95;;;6.10;;
28304;SDS011;15569;42.652;23.040;2023-04-24T01:47:37;11.30;;;6.22;;
28304;SDS011;15569;42.652;23.040;2023-04-24T01:50:03;18.13;;;6.28;;
28304;SDS011;15569;42.652;23.040;2023-04-24T01:52:29;9.02;;;5.50;;
28304;SDS011;15569;42.652;23.040;2023-04-24T01:54:59;7.63;;;5.65;;
28304;SDS011;15569;42.652;23.040;2023-04-24T01:57:25;17.35;;;6.75;;
28304;SDS011;15569;42.652;23.040;2023-04-24T01:59:51;8.30;;;5.85;;
28304;SDS011;15569;42.652;23.040;2023-04-24T02:02:16;8.93;;;6.07;;
28304;SDS011;15569;42.652;23.040;2023-04-24T02:04:42;11.10;;;5.80;;
28304;SDS011;15569;42.652;23.040;2023-04-24T02:07:07;14.30;;;6.28;;
28304;SDS011;15569;42.652;23.040;2023-04-24T02:09:33;12.25;;;6.82;;
28304;SDS011;15569;42.652;23.040;2023-04-24T02:11:58;12.50;;;6.10;;
28304;SDS011;15569;42.652;23.040;2023-04-24T02:14:23;9.50;;;6.43;;
28304;SDS011;15569;42.652;23.040;2023-04-24T02:16:49;11.73;;;6.53;;
28304;SDS011;15569;42.652;23.040;2023-04-24T02:19:14;12.10;;;6.10;;
28304;SDS011;15569;42.652;23.040;2023-04-24T02:21:40;15.65;;;6.82;;
28304;SDS011;15569;42.652;23.040;2023-04-24T02:24:06;12.98;;;6.57;;
28304;SDS011;15569;42.652;23.040;2023-04-24T02:26:31;15.73;;;8.15;;
28304;SDS011;15569;42.652;23.040;2023-04-24T02:28:57;17.45;;;8.00;;
28304;SDS011;15569;42.652;23.040;2023-04-24T02:31:22;11.93;;;7.35;;
28304;SDS011;15569;42.652;23.040;2023-04-24T02:33:48;13.55;;;6.38;;
28304;SDS011;15569;42.652;23.040;2023-04-24T02:36:13;11.38;;;5.85;;
28304;SDS011;15569;42.652;23.040;2023-04-24T02:38:39;23.23;;;9.90;;
28304;SDS011;15569;42.652;23.040;2023-04-24T02:41:04;13.95;;;7.90;;
28304;SDS011;15569;42.652;23.040;2023-04-24T02:43:31;13.73;;;7.38;;
28304;SDS011;15569;42.652;23.040;2023-04-24T02:45:58;16.50;;;8.45;;
28304;SDS011;15569;42.652;23.040;2023-04-24T02:48:23;19.10;;;8.10;;
28304;SDS011;15569;42.652;23.040;2023-04-24T02:50:49;13.48;;;6.80;;
28304;SDS011;15569;42.652;23.040;2023-04-24T02:53:15;24.38;;;9.52;;
28304;SDS011;15569;42.652;23.040;2023-04-24T02:55:41;26.27;;;11.63;;
28304;SDS011;15569;42.652;23.040;2023-04-24T02:58:06;12.80;;;8.52;;
28304;SDS011;15569;42.652;23.040;2023-04-24T03:00:31;14.27;;;7.35;;
28304;SDS011;15569;42.652;23.040;2023-04-24T03:02:57;23.30;;;7.65;;
28304;SDS011;15569;42.652;23.040;2023-04-24T03:05:22;18.33;;;7.15;;
28304;SDS011;15569;42.652;23.040;2023-04-24T03:07:47;23.98;;;7.93;;
28304;SDS011;15569;42.652;23.040;2023-04-24T03:10:13;18.02;;;7.32;;
28304;SDS011;15569;42.652;23.040;2023-04-24T03:12:38;15.35;;;7.65;;
28304;SDS011;15569;42.652;23.040;2023-04-24T03:15:04;18.40;;;6.72;;
28304;SDS011;15569;42.652;23.040;2023-04-24T03:17:30;23.38;;;7.22;;
28304;SDS011;15569;42.652;23.040;2023-04-24T03:19:55;12.10;;;6.28;;
28304;SDS011;15569;42.652;23.040;2023-04-24T03:22:21;17.88;;;6.93;;
28304;SDS011;15569;42.652;23.040;2023-04-24T03:24:46;20.15;;;6.57;;
28304;SDS011;15569;42.652;23.040;2023-04-24T03:27:12;14.27;;;6.28;;
28304;SDS011;15569;42.652;23.040;2023-04-24T03:29:37;21.52;;;8.20;;
28304;SDS011;15569;42.652;23.040;2023-04-24T03:32:02;31.98;;;9.38;;
28304;SDS011;15569;42.652;23.040;2023-04-24T03:34:28;21.95;;;7.95;;
28304;SDS011;15569;42.652;23.040;2023-04-24T03:36:53;31.48;;;9.77;;
28304;SDS011;15569;42.652;23.040;2023-04-24T03:39:18;31.08;;;8.18;;
28304;SDS011;15569;42.652;23.040;2023-04-24T03:41:44;21.77;;;7.57;;
28304;SDS011;15569;42.652;23.040;2023-04-24T03:44:09;16.38;;;6.88;;
28304;SDS011;15569;42.652;23.040;2023-04-24T03:46:35;14.95;;;7.03;;
28304;SDS011;15569;42.652;23.040;2023-04-24T03:49:00;13.60;;;6.97;;
28304;SDS011;15569;42.652;23.040;2023-04-24T03:51:25;13.35;;;6.75;;
28304;SDS011;15569;42.652;23.040;2023-04-24T03:53:53;14.52;;;6.70;;
28304;SDS011;15569;42.652;23.040;2023-04-24T03:56:18;9.38;;;6.32;;
28304;SDS011;15569;42.652;23.040;2023-04-24T03:58:44;15.98;;;6.85;;
28304;SDS011;15569;42.652;23.040;2023-04-24T04:01:09;17.83;;;6.85;;
28304;SDS011;15569;42.652;23.040;2023-04-24T04:03:36;20.50;;;5.93;;
28304;SDS011;15569;42.652;23.040;2023-04-24T04:06:02;15.68;;;6.10;;
28304;SDS011;15569;42.652;23.040;2023-04-24T04:08:27;21.13;;;8.65;;
28304;SDS011;15569;42.652;23.040;2023-04-24T04:10:52;16.92;;;6.75;;
28304;SDS011;15569;42.652;23.040;2023-04-24T04:13:18;14.63;;;6.22;;
28304;SDS011;15569;42.652;23.040;2023-04-24T04:15:43;14.95;;;7.13;;
28304;SDS011;15569;42.652;23.040;2023-04-24T04:18:08;12.40;;;7.63;;
28304;SDS011;15569;42.652;23.040;2023-04-24T04:20:34;11.75;;;6.53;;
28304;SDS011;15569;42.652;23.040;2023-04-24T04:22:59;17.20;;;7.35;;
28304;SDS011;15569;42.652;23.040;2023-04-24T04:25:25;12.30;;;6.22;;
28304;SDS011;15569;42.652;23.040;2023-04-24T04:27:50;14.50;;;5.97;;
28304;SDS011;15569;42.652;23.040;2023-04-24T04:30:16;12.32;;;5.95;;
28304;SDS011;15569;42.652;23.040;2023-04-24T04:32:43;13.15;;;6.35;;
28304;SDS011;15569;42.652;23.040;2023-04-24T04:35:08;13.63;;;6.95;;
28304;SDS011;15569;42.652;23.040;2023-04-24T04:37:34;16.60;;;6.75;;
28304;SDS011;15569;42.652;23.040;2023-04-24T04:40:00;11.27;;;6.43;;
28304;SDS011;15569;42.652;23.040;2023-04-24T04:42:31;10.75;;;6.60;;
28304;SDS011;15569;42.652;23.040;2023-04-24T04:44:57;14.10;;;7.20;;
28304;SDS011;15569;42.652;23.040;2023-04-24T04:47:23;12.38;;;6.57;;
28304;SDS011;15569;42.652;23.040;2023-04-24T04:49:48;22.10;;;7.47;;
28304;SDS011;15569;42.652;23.040;2023-04-24T04:52:14;13.15;;;7.90;;
28304;SDS011;15569;42.652;23.040;2023-04-24T04:54:39;16.73;;;7.38;;
28304;SDS011;15569;42.652;23.040;2023-04-24T04:57:05;14.57;;;7.00;;
28304;SDS011;15569;42.652;23.040;2023-04-24T04:59:30;13.02;;;7.30;;
28304;SDS011;15569;42.652;23.040;2023-04-24T05:01:56;15.57;;;7.60;;
28304;SDS011;15569;42.652;23.040;2023-04-24T05:04:21;16.42;;;6.80;;
28304;SDS011;15569;42.652;23.040;2023-04-24T05:06:47;12.80;;;6.90;;
28304;SDS011;15569;42.652;23.040;2023-04-24T05:09:12;19.63;;;7.25;;
28304;SDS011;15569;42.652;23.040;2023-04-24T05:11:37;11.30;;;6.80;;
28304;SDS011;15569;42.652;23.040;2023-04-24T05:14:03;12.57;;;6.20;;
28304;SDS011;15569;42.652;23.040;2023-04-24T05:16:28;12.77;;;6.20;;
28304;SDS011;15569;42.652;23.040;2023-04-24T05:18:54;18.98;;;6.60;;
28304;SDS011;15569;42.652;23.040;2023-04-24T05:21:19;16.98;;;6.93;;
28304;SDS011;15569;42.652;23.040;2023-04-24T05:23:45;17.77;;;8.18;;
28304;SDS011;15569;42.652;23.040;2023-04-24T05:26:10;15.98;;;7.20;;
28304;SDS011;15569;42.652;23.040;2023-04-24T05:28:35;9.63;;;7.18;;
28304;SDS011;15569;42.652;23.040;2023-04-24T05:31:01;22.00;;;8.32;;
28304;SDS011;15569;42.652;23.040;2023-04-24T05:33:27;14.38;;;7.72;;
28304;SDS011;15569;42.652;23.040;2023-04-24T05:35:53;15.52;;;6.75;;
28304;SDS011;15569;42.652;23.040;2023-04-24T05:38:18;14.82;;;7.05;;
28304;SDS011;15569;42.652;23.040;2023-04-24T05:40:44;11.85;;;6.78;;
28304;SDS011;15569;42.652;23.040;2023-04-24T05:43:10;13.82;;;6.28;;
28304;SDS011;15569;42.652;23.040;2023-04-24T05:45:36;11.73;;;6.57;;
28304;SDS011;15569;42.652;23.040;2023-04-24T05:48:02;16.45;;;6.72;;
28304;SDS011;15569;42.652;23.040;2023-04-24T05:50:28;15.23;;;6.80;;
28304;SDS011;15569;42.652;23.040;2023-04-24T05:52:53;15.75;;;7.07;;
28304;SDS011;15569;42.652;23.040;2023-04-24T05:55:19;17.90;;;8.18;;
28304;SDS011;15569;42.652;23.040;2023-04-24T05:57:45;24.48;;;7.25;;
28304;SDS011;15569;42.652;23.040;2023-04-24T06:00:11;21.77;;;7.38;;
28304;SDS011;15569;42.652;23.040;2023-04-24T06:02:37;14.27;;;8.23;;
28304;SDS011;15569;42.652;23.040;2023-04-24T06:05:03;17.13;;;7.45;;
28304;SDS011;15569;42.652;23.040;2023-04-24T06:07:29;10.55;;;6.18;;
28304;SDS011;15569;42.652;23.040;2023-04-24T06:09:55;16.70;;;6.53;;
28304;SDS011;15569;42.652;23.040;2023-04-24T06:12:21;8.05;;;5.70;;
28304;SDS011;15569;42.652;23.040;2023-04-24T06:14:47;29.95;;;6.43;;
28304;SDS011;15569;42.652;23.040;2023-04-24T06:17:12;12.70;;;6.10;;
28304;SDS011;15569;42.652;23.040;2023-04-24T06:19:38;11.65;;;5.22;;
28304;SDS011;15569;42.652;23.040;2023-04-24T06:22:03;17.25;;;6.05;;
28304;SDS011;15569;42.652;23.040;2023-04-24T06:24:29;12.25;;;5.85;;
28304;SDS011;15569;42.652;23.040;2023-04-24T06:26:55;16.13;;;7.63;;
28304;SDS011;15569;42.652;23.040;2023-04-24T06:29:22;17.98;;;7.05;;
28304;SDS011;15569;42.652;23.040;2023-04-24T06:31:47;19.67;;;8.32;;
28304;SDS011;15569;42.652;23.040;2023-04-24T06:34:12;13.05;;;7.53;;
28304;SDS011;15569;42.652;23.040;2023-04-24T06:36:38;19.73;;;8.27;;
28304;SDS011;15569;42.652;23.040;2023-04-24T06:39:03;11.32;;;6.65;;
28304;SDS011;15569;42.652;23.040;2023-04-24T06:41:29;20.15;;;7.65;;
28304;SDS011;15569;42.652;23.040;2023-04-24T06:43:54;17.45;;;6.10;;
28304;SDS011;15569;42.652;23.040;2023-04-24T06:46:21;13.60;;;6.15;;
28304;SDS011;15569;42.652;23.040;2023-04-24T06:48:51;13.38;;;5.80;;
28304;SDS011;15569;42.652;23.040;2023-04-24T06:51:20;15.82;;;8.55;;
28304;SDS011;15569;42.652;23.040;2023-04-24T06:53:47;9.18;;;5.70;;
28304;SDS011;15569;42.652;23.040;2023-04-24T06:56:13;16.52;;;6.30;;
28304;SDS011;15569;42.652;23.040;2023-04-24T06:58:38;20.83;;;6.65;;
28304;SDS011;15569;42.652;23.040;2023-04-24T07:01:03;13.02;;;6.28;;
28304;SDS011;15569;42.652;23.040;2023-04-24T07:03:29;26.17;;;6.80;;
28304;SDS011;15569;42.652;23.040;2023-04-24T07:05:54;14.30;;;8.93;;
28304;SDS011;15569;42.652;23.040;2023-04-24T07:08:20;16.15;;;8.30;;
28304;SDS011;15569;42.652;23.040;2023-04-24T07:10:47;16.48;;;8.18;;
28304;SDS011;15569;42.652;23.040;2023-04-24T07:13:12;10.95;;;6.47;;
28304;SDS011;15569;42.652;23.040;2023-04-24T07:15:37;11.60;;;6.93;;
28304;SDS011;15569;42.652;23.040;2023-04-24T07:18:03;17.50;;;9.57;;
28304;SDS011;15569;42.652;23.040;2023-04-24T07:20:29;9.15;;;6.55;;
28304;SDS011;15569;42.652;23.040;2023-04-24T07:22:54;15.25;;;7.88;;
28304;SDS011;15569;42.652;23.040;2023-04-24T07:25:20;6.15;;;4.65;;
28304;SDS011;15569;42.652;23.040;2023-04-24T07:27:45;11.35;;;5.60;;
28304;SDS011;15569;42.652;23.040;2023-04-24T07:30:11;9.70;;;5.22;;
28304;SDS011;15569;42.652;23.040;2023-04-24T07:32:36;10.57;;;6.15;;
28304;SDS011;15569;42.652;23.040;2023-04-24T07:35:02;9.18;;;6.32;;
28304;SDS011;15569;42.652;23.040;2023-04-24T07:37:27;10.40;;;5.55;;
28304;SDS011;15569;42.652;23.040;2023-04-24T07:39:53;8.07;;;4.80;;
28304;SDS011;15569;42.652;23.040;2023-04-24T07:42:19;7.50;;;5.05;;
28304;SDS011;15569;42.652;23.040;2023-04-24T07:44:45;12.52;;;6.72;;
28304;SDS011;15569;42.652;23.040;2023-04-24T07:47:12;8.98;;;5.40;;
28304;SDS011;15569;42.652;23.040;2023-04-24T07:49:41;12.57;;;7.10;;
28304;SDS011;15569;42.652;23.040;2023-04-24T07:52:06;17.50;;;6.30;;
28304;SDS011;15569;42.652;23.040;2023-04-24T07:54:32;11.75;;;6.10;;
28304;SDS011;15569;42.652;23.040;2023-04-24T07:56:57;10.60;;;5.75;;
28304;SDS011;15569;42.652;23.040;2023-04-24T07:59:22;10.18;;;5.07;;
28304;SDS011;15569;42.652;23.040;2023-04-24T08:01:48;6.43;;;4.88;;
28304;SDS011;15569;42.652;23.040;2023-04-24T08:04:13;8.90;;;4.97;;
28304;SDS011;15569;42.652;23.040;2023-04-24T08:06:39;8.95;;;5.68;;
28304;SDS011;15569;42.652;23.040;2023-04-24T08:09:05;8.65;;;4.32;;
28304;SDS011;15569;42.652;23.040;2023-04-24T08:11:30;11.73;;;5.97;;
28304;SDS011;15569;42.652;23.040;2023-04-24T08:13:56;8.10;;;5.75;;
28304;SDS011;15569;42.652;23.040;2023-04-24T08:16:22;9.80;;;6.43;;
28304;SDS011;15569;42.652;23.040;2023-04-24T08:18:48;10.82;;;8.32;;
28304;SDS011;15569;42.652;23.040;2023-04-24T08:21:14;6.55;;;5.25;;
28304;SDS011;15569;42.652;23.040;2023-04-24T08:23:42;7.68;;;5.28;;
28304;SDS011;15569;42.652;23.040;2023-04-24T08:26:08;6.10;;;4.30;;
28304;SDS011;15569;42.652;23.040;2023-04-24T08:28:33;9.75;;;4.70;;
28304;SDS011;15569;42.652;23.040;2023-04-24T08:30:58;8.13;;;5.50;;
28304;SDS011;15569;42.652;23.040;2023-04-24T08:33:24;7.90;;;5.90;;
28304;SDS011;15569;42.652;23.040;2023-04-24T08:35:49;8.38;;;6.20;;
28304;SDS011;15569;42.652;23.040;2023-04-24T08:38:15;5.97;;;4.50;;
28304;SDS011;15569;42.652;23.040;2023-04-24T08:40:41;6.38;;;5.07;;
28304;SDS011;15569;42.652;23.040;2023-04-24T08:43:08;7.15;;;5.38;;
28304;SDS011;15569;42.652;23.040;2023-04-24T08:45:35;6.45;;;4.95;;
28304;SDS011;15569;42.652;23.040;2023-04-24T08:48:01;6.80;;;4.05;;
28304;SDS011;15569;42.652;23.040;2023-04-24T08:50:27;6.07;;;3.78;;
28304;SDS011;15569;42.652;23.040;2023-04-24T08:52:54;6.95;;;4.53;;
28304;SDS011;15569;42.652;23.040;2023-04-24T08:55:20;10.00;;;4.15;;
28304;SDS011;15569;42.652;23.040;2023-04-24T08:57:49;5.40;;;3.85;;
28304;SDS011;15569;42.652;23.040;2023-04-24T09:00:16;8.45;;;6.18;;
28304;SDS011;15569;42.652;23.040;2023-04-24T09:02:43;9.63;;;4.97;;
28304;SDS011;15569;42.652;23.040;2023-04-24T09:05:10;10.43;;;4.40;;
28304;SDS011;15569;42.652;23.040;2023-04-24T09:07:36;8.27;;;6.03;;
28304;SDS011;15569;42.652;23.040;2023-04-24T09:10:04;11.00;;;8.57;;
28304;SDS011;15569;42.652;23.040;2023-04-24T09:12:31;14.18;;;7.90;;
28304;SDS011;15569;42.652;23.040;2023-04-24T09:14:58;13.60;;;7.55;;
28304;SDS011;15569;42.652;23.040;2023-04-24T09:17:25;10.93;;;6.03;;
28304;SDS011;15569;42.652;23.040;2023-04-24T09:19:52;6.28;;;4.43;;
28304;SDS011;15569;42.652;23.040;2023-04-24T09:22:17;4.45;;;3.60;;
28304;SDS011;15569;42.652;23.040;2023-04-24T09:24:43;6.22;;;3.70;;
28304;SDS011;15569;42.652;23.040;2023-04-24T09:27:10;13.30;;;5.50;;
28304;SDS011;15569;42.652;23.040;2023-04-24T09:29:37;7.00;;;3.92;;
28304;SDS011;15569;42.652;23.040;2023-04-24T09:32:21;9.35;;;3.55;;
28304;SDS011;15569;42.652;23.040;2023-04-24T09:34:47;4.82;;;4.05;;
28304;SDS011;15569;42.652;23.040;2023-04-24T09:37:29;5.70;;;3.10;;
28304;SDS011;15569;42.652;23.040;2023-04-24T09:40:10;4.88;;;3.13;;
28304;SDS011;15569;42.652;23.040;2023-04-24T09:42:40;7.25;;;3.40;;
28304;SDS011;15569;42.652;23.040;2023-04-24T09:45:09;4.57;;;3.70;;
28304;SDS011;15569;42.652;23.040;2023-04-24T09:47:37;6.68;;;3.78;;
28304;SDS011;15569;42.652;23.040;2023-04-24T09:50:09;3.75;;;3.08;;
28304;SDS011;15569;42.652;23.040;2023-04-24T09:52:45;3.40;;;3.10;;
28304;SDS011;15569;42.652;23.040;2023-04-24T09:55:19;5.90;;;3.72;;
28304;SDS011;15569;42.652;23.040;2023-04-24T10:00:17;5.60;;;3.50;;
28304;SDS011;15569;42.652;23.040;2023-04-24T10:02:43;3.90;;;3.33;;
28304;SDS011;15569;42.652;23.040;2023-04-24T10:05:09;5.00;;;3.60;;
28304;SDS011;15569;42.652;23.040;2023-04-24T10:07:37;3.33;;;2.88;;
28304;SDS011;15569;42.652;23.040;2023-04-24T10:10:02;6.65;;;3.88;;
28304;SDS011;15569;42.652;23.040;2023-04-24T10:12:28;4.30;;;3.80;;
28304;SDS011;15569;42.652;23.040;2023-04-24T10:14:55;4.57;;;3.38;;
28304;SDS011;15569;42.652;23.040;2023-04-24T10:17:22;6.13;;;3.70;;
28304;SDS011;15569;42.652;23.040;2023-04-24T10:19:49;5.45;;;3.70;;
28304;SDS011;15569;42.652;23.040;2023-04-24T10:22:14;9.35;;;4.32;;
28304;SDS011;15569;42.652;23.040;2023-04-24T10:24:41;7.38;;;3.90;;
28304;SDS011;15569;42.652;23.040;2023-04-24T10:27:08;8.63;;;4.15;;
28304;SDS011;15569;42.652;23.040;2023-04-24T10:29:34;6.65;;;4.43;;
28304;SDS011;15569;42.652;23.040;2023-04-24T10:32:01;7.05;;;4.45;;
28304;SDS011;15569;42.652;23.040;2023-04-24T10:34:26;6.20;;;4.20;;
28304;SDS011;15569;42.652;23.040;2023-04-24T10:36:53;6.50;;;3.72;;
28304;SDS011;15569;42.652;23.040;2023-04-24T10:39:20;5.53;;;3.65;;
28304;SDS011;15569;42.652;23.040;2023-04-24T10:41:48;3.97;;;3.28;;
28304;SDS011;15569;42.652;23.040;2023-04-24T10:44:14;4.82;;;3.50;;
28304;SDS011;15569;42.652;23.040;2023-04-24T10:46:44;3.38;;;2.58;;
28304;SDS011;15569;42.652;23.040;2023-04-24T10:51:49;4.75;;;3.10;;
28304;SDS011;15569;42.652;23.040;2023-04-24T10:59:48;13.10;;;7.28;;
28304;SDS011;15569;42.652;23.040;2023-04-24T11:02:14;8.77;;;5.38;;
28304;SDS011;15569;42.652;23.040;2023-04-24T11:04:40;6.40;;;4.97;;
28304;SDS011;15569;42.652;23.040;2023-04-24T11:07:08;9.57;;;6.20;;
28304;SDS011;15569;42.652;23.040;2023-04-24T11:09:34;18.52;;;7.97;;
28304;SDS011;15569;42.652;23.040;2023-04-24T11:12:08;15.30;;;8.70;;
28304;SDS011;15569;42.652;23.040;2023-04-24T11:17:34;11.27;;;6.38;;
28304;SDS011;15569;42.652;23.040;2023-04-24T11:22:32;11.15;;;7.22;;
28304;SDS011;15569;42.652;23.040;2023-04-24T11:25:00;10.20;;;6.85;;
28304;SDS011;15569;42.652;23.040;2023-04-24T11:27:38;5.40;;;4.60;;
28304;SDS011;15569;42.652;23.040;2023-04-24T11:30:07;9.30;;;5.57;;
28304;SDS011;15569;42.652;23.040;2023-04-24T11:32:36;6.55;;;5.40;;
28304;SDS011;15569;42.652;23.040;2023-04-24T11:40:02;9.43;;;7.93;;
28304;SDS011;15569;42.652;23.040;2023-04-24T11:42:33;10.07;;;6.43;;
28304;SDS011;15569;42.652;23.040;2023-04-24T11:45:00;6.28;;;5.40;;
28304;SDS011;15569;42.652;23.040;2023-04-24T11:47:32;6.13;;;4.68;;
28304;SDS011;15569;42.652;23.040;2023-04-24T11:50:01;12.57;;;5.45;;
28304;SDS011;15569;42.652;23.040;2023-04-24T11:52:29;22.92;;;6.70;;
28304;SDS011;15569;42.652;23.040;2023-04-24T11:54:55;14.40;;;9.27;;
28304;SDS011;15569;42.652;23.040;2023-04-24T11:57:21;9.50;;;7.55;;
28304;SDS011;15569;42.652;23.040;2023-04-24T11:59:48;6.80;;;5.38;;
28304;SDS011;15569;42.652;23.040;2023-04-24T12:02:21;12.60;;;7.97;;
28304;SDS011;15569;42.652;23.040;2023-04-24T12:04:50;8.38;;;5.47;;
28304;SDS011;15569;42.652;23.040;2023-04-24T12:07:16;10.10;;;5.15;;
28304;SDS011;15569;42.652;23.040;2023-04-24T12:09:42;6.85;;;4.90;;
28304;SDS011;15569;42.652;23.040;2023-04-24T12:12:09;17.98;;;4.85;;
28304;SDS011;15569;42.652;23.040;2023-04-24T12:14:47;12.40;;;4.32;;
28304;SDS011;15569;42.652;23.040;2023-04-24T12:17:14;6.93;;;4.97;;
28304;SDS011;15569;42.652;23.040;2023-04-24T12:19:45;10.70;;;6.03;;
28304;SDS011;15569;42.652;23.040;2023-04-24T12:22:12;6.68;;;5.38;;
28304;SDS011;15569;42.652;23.040;2023-04-24T12:24:55;8.05;;;5.95;;
28304;SDS011;15569;42.652;23.040;2023-04-24T12:27:21;6.65;;;4.43;;
28304;SDS011;15569;42.652;23.040;2023-04-24T12:29:51;7.40;;;5.90;;
28304;SDS011;15569;42.652;23.040;2023-04-24T12:34:43;10.23;;;5.35;;
28304;SDS011;15569;42.652;23.040;2023-04-24T12:37:11;12.88;;;6.75;;
28304;SDS011;15569;42.652;23.040;2023-04-24T12:39:37;31.17;;;10.65;;
28304;SDS011;15569;42.652;23.040;2023-04-24T12:42:02;21.05;;;7.05;;
28304;SDS011;15569;42.652;23.040;2023-04-24T12:47:02;14.95;;;9.68;;
28304;SDS011;15569;42.652;23.040;2023-04-24T12:49:31;12.45;;;6.80;;
28304;SDS011;15569;42.652;23.040;2023-04-24T12:51:57;8.32;;;4.70;;
28304;SDS011;15569;42.652;23.040;2023-04-24T12:54:22;14.13;;;7.10;;
28304;SDS011;15569;42.652;23.040;2023-04-24T12:56:48;10.75;;;7.20;;
28304;SDS011;15569;42.652;23.040;2023-04-24T12:59:13;11.43;;;5.05;;
28304;SDS011;15569;42.652;23.040;2023-04-24T13:01:38;8.45;;;3.75;;
28304;SDS011;15569;42.652;23.040;2023-04-24T13:04:04;7.65;;;4.40;;
28304;SDS011;15569;42.652;23.040;2023-04-24T13:06:30;8.00;;;4.43;;
28304;SDS011;15569;42.652;23.040;2023-04-24T13:08:56;12.15;;;6.13;;
28304;SDS011;15569;42.652;23.040;2023-04-24T13:11:23;17.75;;;5.22;;
28304;SDS011;15569;42.652;23.040;2023-04-24T13:13:48;11.40;;;5.30;;
28304;SDS011;15569;42.652;23.040;2023-04-24T13:16:14;11.93;;;5.93;;
28304;SDS011;15569;42.652;23.040;2023-04-24T13:18:40;6.70;;;5.10;;
28304;SDS011;15569;42.652;23.040;2023-04-24T13:21:05;5.57;;;4.55;;
28304;SDS011;15569;42.652;23.040;2023-04-24T13:23:30;6.47;;;4.45;;
28304;SDS011;15569;42.652;23.040;2023-04-24T13:25:56;8.93;;;6.28;;
28304;SDS011;15569;42.652;23.040;2023-04-24T13:28:22;10.57;;;5.53;;
28304;SDS011;15569;42.652;23.040;2023-04-24T13:30:48;10.38;;;6.13;;
28304;SDS011;15569;42.652;23.040;2023-04-24T13:33:14;25.10;;;9.60;;
28304;SDS011;15569;42.652;23.040;2023-04-24T13:35:39;11.75;;;6.80;;
28304;SDS011;15569;42.652;23.040;2023-04-24T13:38:05;19.48;;;6.38;;
28304;SDS011;15569;42.652;23.040;2023-04-24T13:40:31;14.20;;;6.30;;
28304;SDS011;15569;42.652;23.040;2023-04-24T13:42:57;9.05;;;6.00;;
28304;SDS011;15569;42.652;23.040;2023-04-24T13:45:22;11.52;;;5.07;;
28304;SDS011;15569;42.652;23.040;2023-04-24T13:47:47;8.10;;;5.45;;
28304;SDS011;15569;42.652;23.040;2023-04-24T13:50:13;6.90;;;3.97;;
28304;SDS011;15569;42.652;23.040;2023-04-24T13:52:38;5.63;;;4.00;;
28304;SDS011;15569;42.652;23.040;2023-04-24T13:55:04;8.32;;;3.70;;
28304;SDS011;15569;42.652;23.040;2023-04-24T13:57:29;13.32;;;5.10;;
28304;SDS011;15569;42.652;23.040;2023-04-24T13:59:56;7.25;;;4.82;;
28304;SDS011;15569;42.652;23.040;2023-04-24T14:02:26;6.68;;;3.90;;
28304;SDS011;15569;42.652;23.040;2023-04-24T14:04:51;7.18;;;3.65;;
28304;SDS011;15569;42.652;23.040;2023-04-24T14:07:17;6.15;;;4.80;;
28304;SDS011;15569;42.652;23.040;2023-04-24T14:09:42;9.88;;;5.32;;
28304;SDS011;15569;42.652;23.040;2023-04-24T14:12:07;13.90;;;6.00;;
28304;SDS011;15569;42.652;23.040;2023-04-24T14:14:33;13.73;;;8.98;;
28304;SDS011;15569;42.652;23.040;2023-04-24T14:16:58;9.05;;;5.47;;
28304;SDS011;15569;42.652;23.040;2023-04-24T14:19:24;9.60;;;7.00;;
28304;SDS011;15569;42.652;23.040;2023-04-24T14:21:49;9.70;;;5.88;;
28304;SDS011;15569;42.652;23.040;2023-04-24T14:24:15;13.73;;;8.82;;
28304;SDS011;15569;42.652;23.040;2023-04-24T14:26:40;9.98;;;4.97;;
28304;SDS011;15569;42.652;23.040;2023-04-24T14:29:06;12.52;;;7.07;;
28304;SDS011;15569;42.652;23.040;2023-04-24T14:31:31;4.82;;;4.18;;
28304;SDS011;15569;42.652;23.040;2023-04-24T14:33:56;12.80;;;8.20;;
28304;SDS011;15569;42.652;23.040;2023-04-24T14:36:22;5.72;;;5.13;;
28304;SDS011;15569;42.652;23.040;2023-04-24T14:38:49;11.48;;;6.82;;
28304;SDS011;15569;42.652;23.040;2023-04-24T14:41:14;8.13;;;5.93;;
28304;SDS011;15569;42.652;23.040;2023-04-24T14:43:40;17.23;;;8.48;;
28304;SDS011;15569;42.652;23.040;2023-04-24T14:46:05;10.30;;;6.18;;